Terminal Aerodrome Forecast
Issued by NWS Norman, OK

Home | Current Version | Previous Version | Text Only | Print | Product List | Glossary On
Versions: 1 2 3 4 5 6 7 8 9 10 11 12 13 14 15 16 17
000
FTUS44 KOUN 311143
TAFOKC
TAF
KOKC 311143Z 3112/0112 14006KT P6SM BKN040
     FM311800 14009KT 4SM -TSRA BKN030CB
      TEMPO 3119/3123 VRB15G25KT 2SM TSRA OVC025CB
     FM010000 08008KT P6SM OVC035 PROB30 0100/0103 4SM -TSRA
      OVC025CB
     FM010300 03006KT P6SM OVC035 PROB30 0103/0109 4SM -TSRA
      OVC025CB=

USA.gov is the U.S. government's official web portal to all federal, state and local government web resources and services.